Davenport, Virginia
Current Conditions -  °F | °C
As of 8:35 PM on Thursday 27 Nov 2014 (Local Time) from KJFZ Reporting Station
Light Snow Light Snow  
Wind Chill: 21°   Ceiling: 2900
Heat Index: 28°   Visibility: 10mi
Dew Point: 23°   Wind: 7mph
Humidity: 80%   Direction: 310°NW
Pressure: 30.25"   Gusts: NA
Location:  37.1°N, 82.14°W
Report Text: KJFZ 280135Z AUTO 31006KT 10SM -SN SCT015 BKN029 OVC037 M02/M05 A3025 RMK AO2 T10211052
Loading
Personal Weather Stations






























Interactive Weather Map New forecast layout! Learn more

10-Day Weather Forecast

Advertisements
Track Severe Weather on mobile